createdAt,value
2022-08-05T00:01:27.731Z,21.40
2022-08-05T00:04:20.945Z,21.40
2022-08-05T00:07:59.253Z,21.30
2022-08-05T00:10:27.061Z,21.20
2022-08-05T00:13:19.860Z,21.10
2022-08-05T00:16:15.786Z,21.00
2022-08-05T00:19:08.961Z,21.00
2022-08-05T00:22:02.026Z,21.00
2022-08-05T00:24:55.033Z,21.00
2022-08-05T00:27:47.481Z,20.90
2022-08-05T00:30:44.065Z,20.70
2022-08-05T00:34:54.967Z,20.70
2022-08-05T00:37:09.801Z,20.60
2022-08-05T00:40:00.951Z,20.50
2022-08-05T00:42:53.216Z,20.50
2022-08-05T00:45:47.783Z,20.50
2022-08-05T00:48:50.849Z,20.50
2022-08-05T00:51:51.840Z,20.50
2022-08-05T00:54:44.455Z,20.60
2022-08-05T00:57:38.242Z,20.60
2022-08-05T01:00:50.221Z,20.60
2022-08-05T01:03:43.113Z,20.70
2022-08-05T01:06:43.874Z,20.70
2022-08-05T01:09:41.986Z,20.70
2022-08-05T01:12:35.029Z,20.60
2022-08-05T01:15:36.088Z,20.60
2022-08-05T01:18:48.201Z,20.50
2022-08-05T01:22:03.293Z,20.50
2022-08-05T01:25:40.754Z,20.40
2022-08-05T01:28:39.508Z,20.30
2022-08-05T01:31:44.609Z,20.30
2022-08-05T01:34:53.986Z,20.30
2022-08-05T01:37:54.683Z,20.40
2022-08-05T01:40:48.207Z,20.30
2022-08-05T01:43:42.449Z,20.40
2022-08-05T01:46:42.280Z,20.30
2022-08-05T01:50:02.122Z,20.20
2022-08-05T01:52:54.732Z,20.20
2022-08-05T01:55:48.975Z,20.10
2022-08-05T01:58:45.136Z,19.90
2022-08-05T02:01:40.024Z,19.60
2022-08-05T02:04:36.664Z,19.50
2022-08-05T02:07:33.862Z,19.50
2022-08-05T02:10:39.884Z,19.60
2022-08-05T02:13:53.183Z,19.60
2022-08-05T02:16:52.189Z,19.60
2022-08-05T02:19:51.128Z,19.60
2022-08-05T02:22:47.046Z,19.50
2022-08-05T02:25:49.085Z,19.40
2022-08-05T02:28:46.019Z,19.20
2022-08-05T02:31:40.450Z,19.20
2022-08-05T02:34:35.434Z,19.10
2022-08-05T02:37:32.074Z,19.00
2022-08-05T02:40:26.041Z,19.20
2022-08-05T02:43:21.525Z,19.20
2022-08-05T02:46:16.996Z,19.30
2022-08-05T02:49:20.043Z,19.20
2022-08-05T02:52:29.304Z,19.30
2022-08-05T02:55:55.331Z,19.20
2022-08-05T02:58:43.663Z,19.10
2022-08-05T03:01:40.548Z,19.10
2022-08-05T03:04:34.490Z,19.20
2022-08-05T03:08:00.486Z,19.10
2022-08-05T03:11:55.742Z,19.20
2022-08-05T03:14:03.399Z,19.20
2022-08-05T03:16:56.435Z,19.00
2022-08-05T03:19:51.342Z,19.10
2022-08-05T03:22:46.868Z,19.10
2022-08-05T03:26:30.185Z,19.20
2022-08-05T03:28:54.954Z,19.20
2022-08-05T03:31:56.163Z,19.20
2022-08-05T03:34:53.388Z,19.20
2022-08-05T03:37:46.965Z,19.00
2022-08-05T03:40:47.389Z,19.00
2022-08-05T03:44:09.121Z,19.00
2022-08-05T03:46:53.504Z,18.90
2022-08-05T03:49:46.665Z,18.80
2022-08-05T03:55:51.688Z,18.80
2022-08-05T03:56:35.052Z,19.00
2022-08-05T03:59:46.528Z,19.70
2022-08-05T04:02:45.244Z,20.20
2022-08-05T04:05:50.779Z,20.80
2022-08-05T04:08:45.326Z,21.30
2022-08-05T04:11:47.410Z,21.70
2022-08-05T04:14:43.650Z,22.00
2022-08-05T04:17:55.555Z,22.40
2022-08-05T04:20:56.588Z,22.70
2022-08-05T04:24:05.851Z,23.00
2022-08-05T04:26:59.077Z,23.20
2022-08-05T04:29:53.130Z,23.30
2022-08-05T04:32:45.337Z,23.60
2022-08-05T04:36:11.161Z,23.90
2022-08-05T04:38:50.982Z,24.20
2022-08-05T04:41:44.355Z,24.90
2022-08-05T04:44:38.242Z,25.20
2022-08-05T04:47:30.402Z,25.40
2022-08-05T04:50:37.294Z,25.50
2022-08-05T04:53:43.664Z,25.80
2022-08-05T04:56:37.348Z,25.80
2022-08-05T04:59:33.577Z,25.80
2022-08-05T05:02:36.497Z,25.80
2022-08-05T05:05:30.694Z,25.60
2022-08-05T05:08:29.903Z,25.60
2022-08-05T05:11:22.707Z,25.90
2022-08-05T05:14:36.206Z,26.00
2022-08-05T05:17:56.230Z,26.20
2022-08-05T05:20:42.355Z,26.40
2022-08-05T05:24:02.271Z,26.90
2022-08-05T05:26:51.968Z,26.90
2022-08-05T05:30:04.197Z,27.00
2022-08-05T05:33:00.183Z,26.60
2022-08-05T05:35:53.640Z,26.70
2022-08-05T05:38:45.810Z,26.80
2022-08-05T05:41:40.528Z,26.70
2022-08-05T05:44:36.747Z,26.20
2022-08-05T05:47:30.224Z,26.30
2022-08-05T05:50:44.361Z,26.50
2022-08-05T05:53:54.206Z,26.90
2022-08-05T05:56:49.461Z,26.80
2022-08-05T05:59:42.275Z,27.20
2022-08-05T06:02:37.679Z,27.20
2022-08-05T06:05:30.313Z,27.50
2022-08-05T06:08:31.814Z,27.70
2022-08-05T06:11:25.293Z,27.50
2022-08-05T06:14:18.330Z,27.20
2022-08-05T06:17:22.458Z,27.30
2022-08-05T06:20:24.489Z,27.50
2022-08-05T06:23:20.249Z,27.70
2022-08-05T06:26:21.040Z,27.90
2022-08-05T06:29:42.802Z,27.80
2022-08-05T06:32:28.902Z,27.90
2022-08-05T06:36:03.116Z,27.70
2022-08-05T06:38:36.233Z,27.70
2022-08-05T06:41:29.186Z,27.50
2022-08-05T06:44:27.687Z,27.50
2022-08-05T06:48:11.545Z,27.90
2022-08-05T06:50:32.217Z,28.00
2022-08-05T06:53:28.377Z,28.00
2022-08-05T06:56:26.785Z,27.80
2022-08-05T06:59:19.306Z,28.20
2022-08-05T07:02:11.467Z,28.20
2022-08-05T07:05:18.553Z,28.20
2022-08-05T07:08:11.557Z,28.70
2022-08-05T07:11:05.264Z,28.80
2022-08-05T07:14:30.124Z,28.70
2022-08-05T07:17:58.838Z,28.70
2022-08-05T07:20:38.895Z,28.90
2022-08-05T07:23:31.419Z,29.20
2022-08-05T07:26:25.003Z,29.10
2022-08-05T07:29:18.156Z,29.00
2022-08-05T07:32:17.646Z,29.40
2022-08-05T07:36:04.202Z,29.70
2022-08-05T07:38:33.246Z,29.50
2022-08-05T07:42:13.475Z,29.50
2022-08-05T07:44:40.216Z,29.20
2022-08-05T07:47:41.956Z,29.40
2022-08-05T07:50:36.575Z,29.70
2022-08-05T07:53:37.062Z,29.80
2022-08-05T07:57:01.809Z,29.90
2022-08-05T07:59:53.455Z,30.40
2022-08-05T08:03:15.005Z,30.50
2022-08-05T08:05:58.308Z,30.20
2022-08-05T08:08:51.307Z,30.20
2022-08-05T08:11:51.272Z,30.30
2022-08-05T08:14:46.769Z,30.30
2022-08-05T08:17:39.355Z,30.20
2022-08-05T08:20:59.690Z,30.40
2022-08-05T08:24:01.653Z,30.40
2022-08-05T08:26:56.862Z,30.40
2022-08-05T08:30:05.880Z,30.60
2022-08-05T08:33:01.730Z,30.60
2022-08-05T08:36:18.381Z,30.50
2022-08-05T08:39:14.857Z,30.40
2022-08-05T08:42:34.415Z,30.70
2022-08-05T08:45:26.977Z,30.80
2022-08-05T08:49:03.002Z,31.00
2022-08-05T08:52:03.507Z,31.10
2022-08-05T08:54:53.010Z,30.80
2022-08-05T08:57:48.233Z,31.10
2022-08-05T09:00:51.498Z,31.10
2022-08-05T09:03:48.414Z,31.10
2022-08-05T09:06:49.855Z,31.20
2022-08-05T09:09:43.440Z,31.50
2022-08-05T09:12:37.899Z,31.70
2022-08-05T09:15:30.434Z,31.60
2022-08-05T09:18:22.863Z,31.80
2022-08-05T09:21:21.089Z,32.20
2022-08-05T09:24:27.309Z,32.30
2022-08-05T09:28:04.633Z,32.00
2022-08-05T09:31:43.241Z,32.10
2022-08-05T09:34:18.931Z,32.10
2022-08-05T09:38:17.182Z,31.90
2022-08-05T09:40:41.128Z,31.90
2022-08-05T09:43:44.313Z,32.10
2022-08-05T09:46:51.720Z,32.50
2022-08-05T09:50:01.610Z,32.90
2022-08-05T09:52:58.756Z,32.90
2022-08-05T09:56:05.002Z,33.10
2022-08-05T09:59:17.213Z,33.10
2022-08-05T10:02:10.162Z,33.00
2022-08-05T10:05:14.131Z,32.90
2022-08-05T10:08:36.706Z,33.10
2022-08-05T10:11:19.802Z,33.20
2022-08-05T10:14:26.778Z,33.20
2022-08-05T10:17:37.408Z,33.30
2022-08-05T10:20:40.352Z,33.20
2022-08-05T10:23:56.195Z,33.40
2022-08-05T10:26:52.812Z,33.80
2022-08-05T10:30:41.897Z,34.00
2022-08-05T10:33:02.569Z,34.10
2022-08-05T10:35:59.809Z,34.30
2022-08-05T10:38:59.168Z,34.40
2022-08-05T10:42:22.905Z,34.40
2022-08-05T10:45:40.431Z,34.60
2022-08-05T10:48:52.740Z,34.80
2022-08-05T10:51:59.715Z,34.70
2022-08-05T10:55:10.300Z,34.40
2022-08-05T10:58:11.270Z,34.00
2022-08-05T11:01:07.429Z,34.00
2022-08-05T11:04:04.749Z,34.10
2022-08-05T11:07:00.430Z,34.10
2022-08-05T11:10:09.518Z,34.00
2022-08-05T11:13:02.677Z,33.90
2022-08-05T11:16:47.713Z,33.70
2022-08-05T11:20:10.754Z,33.60
2022-08-05T11:23:05.748Z,33.50
2022-08-05T11:26:29.110Z,33.60
2022-08-05T11:29:40.845Z,33.70
2022-08-05T11:32:34.869Z,33.80
2022-08-05T11:36:04.491Z,34.00
2022-08-05T11:39:01.132Z,34.20
2022-08-05T11:42:00.632Z,34.60
2022-08-05T11:45:02.952Z,34.40
2022-08-05T11:47:55.345Z,34.30
2022-08-05T11:50:49.599Z,34.20
2022-08-05T11:53:42.233Z,34.00
2022-08-05T11:56:52.129Z,34.00
2022-08-05T11:59:50.381Z,34.10
2022-08-05T12:02:44.626Z,34.30
2022-08-05T12:05:40.065Z,34.30
2022-08-05T12:08:51.568Z,34.10
2022-08-05T12:12:10.559Z,33.90
2022-08-05T12:15:05.983Z,33.80
2022-08-05T12:18:03.708Z,34.00
2022-08-05T12:21:13.535Z,34.10
2022-08-05T12:24:10.738Z,34.10
2022-08-05T12:27:09.522Z,34.10
2022-08-05T12:30:15.467Z,34.00
2022-08-05T12:33:27.603Z,34.10
2022-08-05T12:36:20.729Z,34.20
2022-08-05T12:39:13.789Z,34.30
2022-08-05T12:42:14.842Z,34.20
2022-08-05T12:45:09.854Z,34.30
2022-08-05T12:48:27.045Z,34.40
2022-08-05T12:52:09.914Z,34.40
2022-08-05T12:54:32.830Z,34.30
2022-08-05T12:57:25.283Z,34.40
2022-08-05T13:02:00.873Z,34.60
2022-08-05T13:03:39.065Z,34.70
2022-08-05T13:06:52.038Z,34.50
2022-08-05T13:09:51.594Z,34.40
2022-08-05T13:12:57.386Z,34.40
2022-08-05T13:15:51.994Z,34.50
2022-08-05T13:18:57.778Z,34.50
2022-08-05T13:21:52.555Z,34.60
2022-08-05T13:24:57.351Z,34.80
2022-08-05T13:27:52.973Z,35.00
2022-08-05T13:30:45.173Z,34.70
2022-08-05T13:34:21.143Z,34.70
2022-08-05T13:36:54.686Z,34.70
2022-08-05T13:40:20.104Z,34.70
2022-08-05T13:42:59.946Z,34.70
2022-08-05T13:45:52.114Z,34.70
2022-08-05T13:49:00.288Z,34.60
2022-08-05T13:51:54.104Z,34.70
2022-08-05T13:54:53.344Z,34.70
2022-08-05T13:57:51.203Z,34.50
2022-08-05T14:00:44.199Z,34.40
2022-08-05T14:03:41.991Z,34.60
2022-08-05T14:06:34.206Z,34.70
2022-08-05T14:09:29.818Z,34.70
2022-08-05T14:12:32.522Z,34.60
2022-08-05T14:16:05.045Z,34.60
2022-08-05T14:18:38.053Z,34.50
2022-08-05T14:22:09.998Z,34.50
2022-08-05T14:24:42.459Z,34.40
2022-08-05T14:27:40.241Z,34.30
2022-08-05T14:30:39.635Z,34.20
2022-08-05T14:34:00.050Z,34.20
2022-08-05T14:36:50.741Z,34.00
2022-08-05T14:39:50.019Z,33.80
2022-08-05T14:42:49.225Z,33.80
2022-08-05T14:45:41.895Z,33.90
2022-08-05T14:48:34.148Z,33.90
2022-08-05T14:51:30.647Z,34.00
2022-08-05T14:54:27.842Z,33.70
2022-08-05T14:57:22.386Z,33.70
2022-08-05T15:00:28.428Z,33.80
2022-08-05T15:03:22.976Z,33.90
2022-08-05T15:06:15.933Z,33.80
2022-08-05T15:09:08.324Z,33.80
2022-08-05T15:12:03.920Z,33.80
2022-08-05T15:14:56.258Z,33.80
2022-08-05T15:17:51.988Z,33.90
2022-08-05T15:20:46.001Z,34.00
2022-08-05T15:23:38.333Z,34.10
2022-08-05T15:26:32.504Z,34.10
2022-08-05T15:29:30.035Z,34.00
2022-08-05T15:32:27.159Z,33.90
2022-08-05T15:35:21.752Z,33.80
2022-08-05T15:38:35.408Z,33.80
2022-08-05T15:41:56.034Z,33.70
2022-08-05T15:44:43.651Z,33.70
2022-08-05T15:47:36.043Z,33.50
2022-08-05T15:50:28.273Z,33.50
2022-08-05T15:53:22.121Z,33.50
2022-08-05T15:56:19.882Z,33.50
2022-08-05T15:59:22.265Z,33.50
2022-08-05T16:02:28.685Z,33.40
2022-08-05T16:05:21.238Z,33.40
2022-08-05T16:08:20.470Z,33.40
2022-08-05T16:11:13.286Z,33.30
2022-08-05T16:14:06.001Z,33.30
2022-08-05T16:16:58.916Z,33.30
2022-08-05T16:20:05.013Z,33.30
2022-08-05T16:23:03.739Z,33.20
2022-08-05T16:26:09.755Z,33.20
2022-08-05T16:29:02.183Z,33.10
2022-08-05T16:31:57.295Z,33.00
2022-08-05T16:34:50.896Z,33.00
2022-08-05T16:38:03.315Z,33.00
2022-08-05T16:41:00.900Z,33.00
2022-08-05T16:43:56.412Z,32.90
2022-08-05T16:46:55.907Z,32.80
2022-08-05T16:49:48.533Z,32.70
2022-08-05T16:52:46.276Z,32.60
2022-08-05T16:55:46.496Z,32.60
2022-08-05T16:58:40.790Z,32.60
2022-08-05T17:01:52.694Z,32.50
2022-08-05T17:04:45.582Z,32.50
2022-08-05T17:07:43.557Z,32.50
2022-08-05T17:10:46.537Z,32.50
2022-08-05T17:13:41.439Z,32.40
2022-08-05T17:16:36.633Z,32.30
2022-08-05T17:19:29.279Z,32.20
2022-08-05T17:22:25.290Z,32.20
2022-08-05T17:25:33.691Z,32.10
2022-08-05T17:28:30.303Z,32.00
2022-08-05T17:31:24.387Z,31.90
2022-08-05T17:34:34.936Z,31.70
2022-08-05T17:37:40.545Z,31.60
2022-08-05T17:40:35.022Z,31.50
2022-08-05T17:43:46.576Z,31.30
2022-08-05T17:46:39.498Z,31.20
2022-08-05T17:49:51.671Z,31.10
2022-08-05T17:52:54.644Z,31.00
2022-08-05T17:55:47.256Z,30.80
2022-08-05T17:58:39.679Z,30.60
2022-08-05T18:01:42.649Z,30.40
2022-08-05T18:04:53.373Z,30.20
2022-08-05T18:07:47.537Z,30.10
2022-08-05T18:10:40.018Z,30.00
2022-08-05T18:13:36.807Z,29.80
2022-08-05T18:16:51.502Z,29.60
2022-08-05T18:19:44.915Z,29.50
2022-08-05T18:22:53.856Z,29.30
2022-08-05T18:25:47.007Z,29.20
2022-08-05T18:28:49.781Z,29.00
2022-08-05T18:31:42.969Z,28.80
2022-08-05T18:34:41.024Z,28.70
2022-08-05T18:37:40.228Z,28.70
2022-08-05T18:41:53.813Z,28.70
2022-08-05T18:43:49.043Z,28.60
2022-08-05T18:46:41.453Z,28.70
2022-08-05T18:49:57.905Z,28.60
2022-08-05T18:52:51.989Z,28.50
2022-08-05T18:55:44.199Z,28.30
2022-08-05T18:58:36.398Z,28.30
2022-08-05T19:01:33.424Z,28.10
2022-08-05T19:05:01.784Z,27.80
2022-08-05T19:07:56.170Z,27.60
2022-08-05T19:10:50.675Z,27.60
2022-08-05T19:13:47.843Z,27.50
2022-08-05T19:16:47.004Z,27.50
2022-08-05T19:19:46.669Z,27.40
2022-08-05T19:22:39.921Z,27.30
2022-08-05T19:25:39.212Z,27.30
2022-08-05T19:28:35.783Z,27.00
2022-08-05T19:31:28.487Z,26.70
2022-08-05T19:34:26.882Z,26.40
2022-08-05T19:37:19.180Z,26.20
2022-08-05T19:40:14.887Z,26.10
2022-08-05T19:43:07.436Z,26.10
2022-08-05T19:45:59.693Z,26.10
2022-08-05T19:48:51.915Z,26.00
2022-08-05T19:52:05.155Z,25.70
2022-08-05T19:54:56.811Z,25.70
2022-08-05T19:58:06.667Z,25.70
2022-08-05T20:01:05.398Z,25.60
2022-08-05T20:03:58.484Z,25.50
2022-08-05T20:06:51.789Z,25.20
2022-08-05T20:09:53.741Z,25.00
2022-08-05T20:12:49.092Z,24.90
2022-08-05T20:15:52.114Z,25.00
2022-08-05T20:18:48.543Z,25.10
2022-08-05T20:21:47.653Z,25.10
2022-08-05T20:24:42.066Z,25.20
2022-08-05T20:27:41.627Z,25.30
2022-08-05T20:30:34.389Z,25.10
2022-08-05T20:33:29.469Z,25.00
2022-08-05T20:36:24.341Z,24.80
2022-08-05T20:39:18.160Z,24.90
2022-08-05T20:42:11.693Z,24.70
2022-08-05T20:45:05.252Z,24.70
2022-08-05T20:47:58.336Z,24.80
2022-08-05T20:50:52.347Z,24.70
2022-08-05T20:53:56.860Z,24.60
2022-08-05T20:56:53.597Z,24.60
2022-08-05T21:00:19.509Z,24.50
2022-08-05T21:03:01.517Z,24.50
2022-08-05T21:05:55.619Z,24.40
2022-08-05T21:08:51.254Z,24.30
2022-08-05T21:12:07.279Z,24.20
2022-08-05T21:14:57.761Z,24.00
2022-08-05T21:17:51.053Z,23.90
2022-08-05T21:20:44.503Z,24.00
2022-08-05T21:23:38.950Z,24.00
2022-08-05T21:26:31.318Z,24.20
2022-08-05T21:29:26.639Z,24.10
2022-08-05T21:32:26.990Z,24.20
2022-08-05T21:35:29.459Z,24.00
2022-08-05T21:38:22.443Z,23.80
2022-08-05T21:41:14.952Z,23.80
2022-08-05T21:44:12.955Z,23.80
2022-08-05T21:47:17.335Z,23.50
2022-08-05T21:50:19.910Z,23.50
2022-08-05T21:53:17.561Z,23.40
2022-08-05T21:56:16.637Z,23.20
2022-08-05T21:59:23.927Z,23.20
2022-08-05T22:02:17.308Z,23.10
2022-08-05T22:05:10.741Z,23.10
2022-08-05T22:08:03.050Z,23.10
2022-08-05T22:10:57.057Z,23.20
2022-08-05T22:14:19.803Z,23.20
2022-08-05T22:17:03.836Z,23.20
2022-08-05T22:20:03.386Z,23.10
2022-08-05T22:23:24.421Z,23.10
2022-08-05T22:26:35.038Z,23.10
2022-08-05T22:29:32.976Z,23.20
2022-08-05T22:32:25.507Z,23.30
2022-08-05T22:35:18.977Z,23.30
2022-08-05T22:38:11.266Z,23.30
2022-08-05T22:41:08.671Z,23.30
2022-08-05T22:44:02.128Z,23.20
2022-08-05T22:46:54.343Z,23.20
2022-08-05T22:50:20.484Z,23.10
2022-08-05T22:53:00.151Z,23.00
2022-08-05T22:55:56.444Z,22.90
2022-08-05T22:58:49.659Z,22.80
2022-08-05T23:02:05.004Z,22.80
2022-08-05T23:05:02.076Z,22.70
2022-08-05T23:07:56.921Z,22.60
2022-08-05T23:10:53.206Z,22.60
2022-08-05T23:13:48.468Z,22.60
2022-08-05T23:17:02.285Z,22.60
2022-08-05T23:19:57.160Z,22.60
2022-08-05T23:22:49.401Z,22.60
2022-08-05T23:25:51.132Z,22.60
2022-08-05T23:28:46.619Z,22.60
2022-08-05T23:31:38.836Z,22.70
2022-08-05T23:34:31.108Z,22.60
2022-08-05T23:37:23.548Z,22.60
2022-08-05T23:40:18.920Z,22.50
2022-08-05T23:43:25.619Z,22.50
2022-08-05T23:46:31.639Z,22.40
2022-08-05T23:49:35.731Z,22.70
2022-08-05T23:52:32.247Z,22.70
2022-08-05T23:55:31.221Z,22.60
2022-08-05T23:58:31.622Z,22.50
